createdAt,value
2019-04-10T00:01:38.261Z,9.03
2019-04-10T00:04:28.142Z,8.98
2019-04-10T00:07:19.456Z,8.94
2019-04-10T00:10:09.739Z,8.91
2019-04-10T00:13:00.409Z,8.88
2019-04-10T00:15:50.813Z,8.82
2019-04-10T00:18:40.427Z,8.78
2019-04-10T00:21:29.739Z,8.76
2019-04-10T00:24:19.864Z,8.72
2019-04-10T00:27:10.389Z,8.66
2019-04-10T00:30:00.668Z,8.62
2019-04-10T00:32:50.742Z,8.58
2019-04-10T00:35:40.021Z,8.56
2019-04-10T00:38:29.584Z,8.52
2019-04-10T00:41:19.751Z,8.48
2019-04-10T00:44:09.191Z,8.44
2019-04-10T00:46:59.033Z,8.40
2019-04-10T00:49:48.580Z,8.36
2019-04-10T00:52:38.618Z,8.33
2019-04-10T00:55:28.823Z,8.30
2019-04-10T00:58:18.965Z,8.25
2019-04-10T01:01:09.638Z,8.21
2019-04-10T01:04:00.201Z,8.19
2019-04-10T01:06:50.508Z,8.14
2019-04-10T01:09:39.877Z,8.11
2019-04-10T01:12:29.795Z,8.08
2019-04-10T01:15:19.026Z,8.06
2019-04-10T01:18:09.193Z,8.02
2019-04-10T01:20:59.042Z,7.98
2019-04-10T01:23:48.938Z,7.94
2019-04-10T01:26:39.175Z,7.91
2019-04-10T01:29:29.231Z,7.87
2019-04-10T01:32:19.445Z,7.84
2019-04-10T01:35:09.900Z,7.82
2019-04-10T01:38:01.454Z,7.77
2019-04-10T01:40:51.169Z,7.71
2019-04-10T01:43:41.234Z,7.69
2019-04-10T01:46:33.634Z,7.67
2019-04-10T01:49:22.139Z,7.64
2019-04-10T01:52:12.950Z,7.58
2019-04-10T01:55:16.035Z,7.56
2019-04-10T01:57:58.886Z,7.52
2019-04-10T02:00:57.195Z,7.48
2019-04-10T02:03:46.596Z,7.46
2019-04-10T02:06:35.767Z,7.43
2019-04-10T02:09:25.741Z,7.37
2019-04-10T02:12:15.017Z,7.35
2019-04-10T02:15:04.858Z,7.31
2019-04-10T02:17:55.041Z,7.28
2019-04-10T02:20:45.204Z,7.25
2019-04-10T02:23:34.651Z,7.20
2019-04-10T02:26:23.821Z,7.18
2019-04-10T02:29:13.909Z,7.15
2019-04-10T02:32:04.161Z,7.12
2019-04-10T02:34:55.132Z,7.09
2019-04-10T02:37:44.870Z,7.07
2019-04-10T02:40:34.754Z,7.02
2019-04-10T02:43:23.820Z,7.00
2019-04-10T02:46:13.363Z,6.96
2019-04-10T02:49:04.162Z,6.94
2019-04-10T02:51:55.008Z,6.88
2019-04-10T02:54:46.030Z,6.87
2019-04-10T02:57:37.320Z,6.85
2019-04-10T03:00:28.292Z,6.83
2019-04-10T03:03:19.916Z,6.81
2019-04-10T03:06:11.377Z,6.78
2019-04-10T03:09:14.616Z,6.73
2019-04-10T03:11:51.946Z,6.71
2019-04-10T03:14:44.946Z,6.68
2019-04-10T03:17:33.256Z,6.68
2019-04-10T03:20:24.511Z,6.64
2019-04-10T03:23:13.580Z,6.61
2019-04-10T03:26:03.544Z,6.58
2019-04-10T03:28:56.263Z,6.56
2019-04-10T03:31:45.367Z,6.52
2019-04-10T03:34:40.593Z,6.51
2019-04-10T03:37:28.523Z,6.47
2019-04-10T03:40:18.127Z,6.43
2019-04-10T03:43:07.718Z,6.41
2019-04-10T03:45:57.290Z,6.38
2019-04-10T03:48:47.320Z,6.35
2019-04-10T03:51:37.304Z,6.30
2019-04-10T03:54:28.052Z,6.29
2019-04-10T03:57:20.562Z,6.25
2019-04-10T04:00:10.319Z,6.20
2019-04-10T04:03:00.239Z,6.19
2019-04-10T04:05:50.980Z,6.17
2019-04-10T04:08:40.268Z,6.13
2019-04-10T04:11:30.015Z,6.12
2019-04-10T04:14:19.808Z,6.10
2019-04-10T04:17:09.614Z,6.05
2019-04-10T04:19:58.868Z,6.04
2019-04-10T04:22:49.480Z,6.00
2019-04-10T04:25:40.555Z,5.97
2019-04-10T04:28:30.658Z,5.95
2019-04-10T04:31:19.788Z,5.91
2019-04-10T04:34:09.996Z,5.89
2019-04-10T04:37:00.410Z,5.87
2019-04-10T04:39:49.966Z,5.85
2019-04-10T04:42:40.709Z,5.82
2019-04-10T04:45:30.252Z,5.80
2019-04-10T04:48:19.487Z,5.77
2019-04-10T04:51:09.587Z,5.76
2019-04-10T04:53:59.109Z,5.72
2019-04-10T04:56:48.806Z,5.66
2019-04-10T04:59:38.606Z,5.65
2019-04-10T05:02:28.241Z,5.63
2019-04-10T05:05:18.497Z,5.59
2019-04-10T05:08:08.424Z,5.57
2019-04-10T05:10:58.238Z,5.53
2019-04-10T05:13:48.974Z,5.52
2019-04-10T05:16:38.226Z,5.51
2019-04-10T05:19:27.600Z,5.47
2019-04-10T05:22:16.880Z,5.46
2019-04-10T05:25:05.691Z,5.44
2019-04-10T05:27:55.354Z,5.42
2019-04-10T05:30:45.282Z,5.42
2019-04-10T05:33:36.616Z,5.41
2019-04-10T05:36:25.996Z,5.39
2019-04-10T05:39:15.389Z,5.35
2019-04-10T05:42:04.328Z,5.35
2019-04-10T05:44:53.761Z,5.31
2019-04-10T05:47:42.778Z,5.32
2019-04-10T05:50:32.112Z,5.31
2019-04-10T05:53:22.550Z,5.32
2019-04-10T05:56:12.348Z,5.29
2019-04-10T05:59:03.006Z,5.27
2019-04-10T06:01:52.821Z,5.27
2019-04-10T06:04:41.985Z,5.28
2019-04-10T06:07:31.550Z,5.30
2019-04-10T06:10:21.686Z,5.32
2019-04-10T06:13:12.816Z,5.36
2019-04-10T06:16:03.530Z,5.36
2019-04-10T06:18:53.609Z,5.34
2019-04-10T06:21:43.981Z,5.40
2019-04-10T06:24:33.241Z,5.44
2019-04-10T06:27:22.364Z,5.48
2019-04-10T06:30:12.141Z,5.55
2019-04-10T06:33:02.270Z,5.60
2019-04-10T06:35:53.054Z,5.64
2019-04-10T06:38:43.333Z,5.70
2019-04-10T06:41:33.303Z,5.77
2019-04-10T06:44:23.013Z,5.83
2019-04-10T06:47:12.578Z,5.91
2019-04-10T06:50:02.563Z,5.99
2019-04-10T06:52:54.833Z,6.07
2019-04-10T06:55:44.883Z,6.14
2019-04-10T06:58:34.671Z,6.22
2019-04-10T07:01:26.103Z,6.30
2019-04-10T07:04:15.496Z,6.39
2019-04-10T07:07:10.927Z,6.49
2019-04-10T07:09:57.565Z,6.57
2019-04-10T07:12:47.850Z,6.65
2019-04-10T07:15:37.792Z,6.72
2019-04-10T07:18:28.394Z,6.81
2019-04-10T07:21:17.643Z,6.90
2019-04-10T07:24:09.516Z,6.95
2019-04-10T07:27:02.248Z,7.06
2019-04-10T07:29:50.856Z,7.18
2019-04-10T07:32:43.333Z,7.27
2019-04-10T07:35:33.716Z,7.36
2019-04-10T07:38:21.715Z,7.46
2019-04-10T07:41:19.338Z,7.56
2019-04-10T07:44:03.798Z,7.65
2019-04-10T07:46:54.916Z,7.74
2019-04-10T07:49:46.202Z,7.85
2019-04-10T07:52:35.873Z,7.94
2019-04-10T07:55:25.684Z,8.05
2019-04-10T07:58:15.286Z,8.13
2019-04-10T08:01:05.315Z,8.24
2019-04-10T08:03:55.536Z,8.35
2019-04-10T08:06:46.758Z,8.45
2019-04-10T08:09:36.197Z,8.54
2019-04-10T08:12:37.576Z,8.65
2019-04-10T08:15:17.360Z,8.76
2019-04-10T08:18:06.640Z,8.87
2019-04-10T08:20:57.264Z,8.98
2019-04-10T08:23:48.286Z,9.10
2019-04-10T08:26:38.816Z,9.23
2019-04-10T08:29:28.263Z,9.34
2019-04-10T08:32:18.205Z,9.47
2019-04-10T08:35:09.107Z,9.55
2019-04-10T08:37:59.231Z,9.71
2019-04-10T08:40:48.559Z,9.85
2019-04-10T08:43:37.612Z,10.00
2019-04-10T08:46:26.664Z,10.12
2019-04-10T08:49:16.285Z,10.28
2019-04-10T08:52:06.273Z,10.42
2019-04-10T08:54:57.419Z,10.61
2019-04-10T08:57:47.084Z,10.74
2019-04-10T09:00:36.945Z,10.90
2019-04-10T09:03:26.765Z,11.07
2019-04-10T09:06:17.538Z,11.23
2019-04-10T09:09:08.127Z,11.39
2019-04-10T09:11:57.837Z,11.55
2019-04-10T09:14:47.621Z,11.72
2019-04-10T09:17:37.733Z,11.87
2019-04-10T09:20:26.850Z,12.02
2019-04-10T09:23:26.519Z,12.21
2019-04-10T09:26:08.027Z,12.39
2019-04-10T09:28:58.883Z,12.53
2019-04-10T09:31:49.001Z,12.70
2019-04-10T09:34:40.090Z,12.88
2019-04-10T09:37:31.012Z,13.05
2019-04-10T09:40:22.350Z,13.21
2019-04-10T09:43:15.687Z,13.36
2019-04-10T09:46:06.400Z,13.50
2019-04-10T09:48:56.188Z,13.63
2019-04-10T09:51:46.224Z,13.78
2019-04-10T09:54:38.233Z,13.95
2019-04-10T09:57:49.752Z,14.12
2019-04-10T10:00:41.257Z,14.25
2019-04-10T10:03:30.799Z,14.41
2019-04-10T10:06:29.574Z,14.27
2019-04-10T10:09:14.820Z,14.56
2019-04-10T10:12:04.507Z,14.79
2019-04-10T10:14:54.703Z,14.94
2019-04-10T10:17:44.548Z,15.10
2019-04-10T10:20:35.741Z,15.22
2019-04-10T10:23:27.598Z,15.41
2019-04-10T10:26:17.658Z,15.54
2019-04-10T10:29:09.324Z,15.69
2019-04-10T10:32:00.408Z,15.82
2019-04-10T10:34:50.558Z,15.97
2019-04-10T10:37:42.931Z,16.18
2019-04-10T10:40:32.369Z,16.43
2019-04-10T10:43:22.454Z,16.60
2019-04-10T10:46:13.454Z,16.75
2019-04-10T10:49:02.935Z,16.85
2019-04-10T10:51:53.323Z,16.97
2019-04-10T10:54:47.097Z,17.12
2019-04-10T10:57:37.539Z,17.20
2019-04-10T11:00:29.311Z,17.36
2019-04-10T11:03:22.448Z,17.55
2019-04-10T11:06:12.948Z,17.73
2019-04-10T11:09:08.343Z,17.87
2019-04-10T11:11:58.498Z,18.02
2019-04-10T11:14:48.335Z,16.95
2019-04-10T11:17:38.533Z,17.68
2019-04-10T11:20:28.498Z,18.14
2019-04-10T11:23:18.239Z,18.39
2019-04-10T11:26:08.479Z,18.59
2019-04-10T11:28:58.113Z,18.78
2019-04-10T11:31:47.568Z,18.96
2019-04-10T11:34:36.639Z,19.13
2019-04-10T11:37:36.683Z,19.32
2019-04-10T11:40:18.047Z,19.45
2019-04-10T11:43:07.872Z,19.64
2019-04-10T11:46:01.737Z,19.79
2019-04-10T11:48:49.306Z,19.95
2019-04-10T11:51:39.030Z,20.04
2019-04-10T11:54:30.428Z,20.16
2019-04-10T11:57:20.409Z,20.28
2019-04-10T12:03:08.321Z,20.51
2019-04-10T12:05:57.731Z,20.62
2019-04-10T12:09:13.273Z,20.72
2019-04-10T12:11:43.152Z,20.84
2019-04-10T12:14:39.578Z,20.97
2019-04-10T12:17:38.146Z,21.06
2019-04-10T12:20:33.267Z,21.17
2019-04-10T12:23:25.132Z,20.82
2019-04-10T12:26:14.473Z,20.89
2019-04-10T12:29:06.745Z,21.14
2019-04-10T12:31:56.680Z,21.31
2019-04-10T12:34:48.687Z,21.43
2019-04-10T12:37:41.175Z,21.57
2019-04-10T12:40:37.945Z,21.64
2019-04-10T12:43:34.796Z,21.77
2019-04-10T12:46:24.826Z,20.78
2019-04-10T12:49:17.081Z,21.33
2019-04-10T12:52:07.861Z,21.60
2019-04-10T12:54:58.322Z,21.77
2019-04-10T12:57:47.643Z,21.89
2019-04-10T13:00:36.792Z,21.96
2019-04-10T13:03:27.212Z,22.06
2019-04-10T13:06:17.968Z,22.13
2019-04-10T13:09:12.567Z,22.19
2019-04-10T13:12:00.630Z,22.24
2019-04-10T13:14:50.714Z,22.32
2019-04-10T13:17:40.777Z,22.33
2019-04-10T13:20:29.856Z,22.38
2019-04-10T13:23:19.128Z,22.43
2019-04-10T13:26:10.422Z,22.44
2019-04-10T13:28:59.963Z,22.47
2019-04-10T13:31:49.739Z,22.52
2019-04-10T13:34:39.664Z,22.52
2019-04-10T13:37:29.707Z,22.54
2019-04-10T13:40:19.454Z,22.56
2019-04-10T13:43:09.556Z,22.57
2019-04-10T13:46:00.446Z,22.51
2019-04-10T13:48:50.069Z,22.48
2019-04-10T13:51:39.310Z,22.50
2019-04-10T13:54:28.434Z,22.52
2019-04-10T13:57:18.155Z,22.47
2019-04-10T14:00:11.265Z,22.47
2019-04-10T14:03:01.741Z,22.48
2019-04-10T14:05:51.212Z,22.50
2019-04-10T14:09:04.695Z,22.50
2019-04-10T14:11:33.891Z,22.49
2019-04-10T14:14:24.336Z,22.45
2019-04-10T14:17:14.237Z,22.47
2019-04-10T14:20:04.680Z,22.51
2019-04-10T14:23:02.059Z,22.49
2019-04-10T14:26:22.589Z,22.50
2019-04-10T14:29:16.307Z,22.52
2019-04-10T14:32:09.161Z,22.40
2019-04-10T14:34:59.033Z,22.37
2019-04-10T14:37:48.345Z,22.38
2019-04-10T14:40:37.997Z,22.37
2019-04-10T14:43:28.732Z,22.34
2019-04-10T14:46:18.795Z,22.30
2019-04-10T14:49:09.024Z,22.26
2019-04-10T14:51:58.922Z,22.24
2019-04-10T14:54:48.662Z,22.12
2019-04-10T14:57:39.115Z,22.20
2019-04-10T15:00:36.962Z,22.22
2019-04-10T15:03:26.526Z,22.28
2019-04-10T15:06:15.476Z,22.32
2019-04-10T15:09:19.887Z,22.33
2019-04-10T15:11:59.358Z,22.29
2019-04-10T15:14:49.882Z,22.32
2019-04-10T15:17:40.280Z,22.27
2019-04-10T15:20:29.706Z,22.22
2019-04-10T15:23:18.831Z,22.16
2019-04-10T15:26:08.431Z,22.20
2019-04-10T15:28:58.308Z,22.19
2019-04-10T15:31:48.096Z,22.12
2019-04-10T15:34:37.484Z,22.07
2019-04-10T15:37:27.594Z,22.08
2019-04-10T15:40:22.803Z,22.09
2019-04-10T15:43:08.448Z,22.03
2019-04-10T15:45:57.804Z,22.05
2019-04-10T15:48:47.416Z,22.06
2019-04-10T15:51:36.976Z,22.12
2019-04-10T15:54:26.361Z,22.01
2019-04-10T15:57:16.466Z,21.97
2019-04-10T16:00:09.194Z,21.87
2019-04-10T16:02:58.999Z,21.90
2019-04-10T16:05:48.531Z,21.73
2019-04-10T16:08:38.592Z,21.69
2019-04-10T16:11:38.190Z,21.67
2019-04-10T16:14:30.204Z,21.67
2019-04-10T16:17:52.395Z,21.60
2019-04-10T16:20:43.103Z,21.37
2019-04-10T16:23:37.769Z,21.19
2019-04-10T16:26:27.618Z,21.12
2019-04-10T16:29:18.191Z,21.11
2019-04-10T16:32:08.991Z,21.01
2019-04-10T16:34:59.020Z,20.96
2019-04-10T16:37:49.435Z,20.90
2019-04-10T16:40:40.410Z,20.72
2019-04-10T16:43:30.637Z,20.48
2019-04-10T16:46:21.848Z,20.26
2019-04-10T16:49:11.301Z,20.07
2019-04-10T16:52:00.881Z,19.80
2019-04-10T16:54:51.431Z,19.47
2019-04-10T16:57:41.479Z,19.21
2019-04-10T17:00:31.212Z,18.97
2019-04-10T17:03:21.817Z,18.70
2019-04-10T17:06:12.300Z,18.43
2019-04-10T17:09:03.175Z,18.19
2019-04-10T17:11:53.832Z,17.89
2019-04-10T17:14:43.906Z,17.66
2019-04-10T17:17:33.358Z,17.42
2019-04-10T17:20:26.635Z,17.20
2019-04-10T17:23:16.493Z,17.00
2019-04-10T17:26:06.595Z,16.79
2019-04-10T17:28:56.654Z,16.62
2019-04-10T17:31:46.887Z,16.42
2019-04-10T17:34:35.918Z,16.25
2019-04-10T17:37:27.027Z,16.04
2019-04-10T17:40:27.347Z,15.87
2019-04-10T17:43:08.562Z,15.67
2019-04-10T17:45:58.664Z,15.49
2019-04-10T17:48:49.645Z,15.33
2019-04-10T17:51:39.745Z,15.15
2019-04-10T17:54:29.839Z,15.00
2019-04-10T17:57:21.076Z,14.83
2019-04-10T18:00:21.272Z,14.68
2019-04-10T18:03:10.950Z,14.55
2019-04-10T18:06:01.384Z,14.44
2019-04-10T18:08:51.477Z,14.32
2019-04-10T18:11:41.486Z,14.21
2019-04-10T18:14:31.366Z,14.06
2019-04-10T18:17:21.146Z,13.92
2019-04-10T18:20:11.573Z,13.77
2019-04-10T18:23:01.041Z,13.64
2019-04-10T18:25:51.878Z,13.53
2019-04-10T18:28:43.581Z,13.41
2019-04-10T18:31:32.957Z,13.29
2019-04-10T18:34:22.690Z,13.17
2019-04-10T18:37:18.690Z,13.04
2019-04-10T18:40:07.555Z,12.91
2019-04-10T18:43:00.690Z,12.80
2019-04-10T18:46:06.126Z,12.67
2019-04-10T18:48:49.521Z,12.55
2019-04-10T18:51:40.386Z,12.43
2019-04-10T18:54:36.003Z,12.32
2019-04-10T18:57:22.040Z,12.20
2019-04-10T19:00:44.582Z,12.08
2019-04-10T19:03:58.265Z,11.98
2019-04-10T19:06:53.375Z,11.85
2019-04-10T19:09:45.297Z,11.73
2019-04-10T19:12:34.824Z,11.61
2019-04-10T19:15:25.492Z,11.52
2019-04-10T19:18:15.375Z,11.42
2019-04-10T19:21:05.295Z,11.32
2019-04-10T19:23:55.643Z,11.22
2019-04-10T19:26:45.435Z,11.14
2019-04-10T19:29:35.548Z,11.07
2019-04-10T19:32:31.146Z,11.00
2019-04-10T19:35:21.407Z,10.90
2019-04-10T19:38:13.410Z,10.84
2019-04-10T19:41:04.663Z,10.77
2019-04-10T19:43:54.947Z,10.71
2019-04-10T19:46:45.928Z,10.62
2019-04-10T19:49:37.053Z,10.53
2019-04-10T19:52:28.555Z,10.47
2019-04-10T19:55:18.272Z,10.40
2019-04-10T19:58:08.148Z,10.32
2019-04-10T20:00:59.417Z,10.25
2019-04-10T20:03:50.054Z,10.17
2019-04-10T20:06:40.740Z,10.09
2019-04-10T20:09:30.532Z,10.04
2019-04-10T20:12:20.324Z,10.00
2019-04-10T20:15:10.011Z,9.93
2019-04-10T20:18:00.104Z,9.87
2019-04-10T20:20:51.155Z,9.82
2019-04-10T20:23:41.139Z,9.74
2019-04-10T20:26:31.461Z,9.68
2019-04-10T20:29:21.221Z,9.64
2019-04-10T20:32:12.612Z,9.58
2019-04-10T20:35:02.494Z,9.52
2019-04-10T20:37:51.289Z,9.45
2019-04-10T20:40:42.187Z,9.41
2019-04-10T20:43:32.683Z,9.36
2019-04-10T20:46:22.843Z,9.29
2019-04-10T20:49:12.137Z,9.22
2019-04-10T20:52:01.972Z,9.18
2019-04-10T20:54:51.723Z,9.12
2019-04-10T20:57:40.854Z,9.09
2019-04-10T21:00:34.504Z,9.03
2019-04-10T21:03:25.281Z,8.97
2019-04-10T21:06:15.505Z,8.93
2019-04-10T21:09:07.589Z,8.87
2019-04-10T21:12:03.833Z,8.81
2019-04-10T21:14:48.576Z,8.78
2019-04-10T21:17:37.558Z,8.71
2019-04-10T21:20:27.248Z,8.66
2019-04-10T21:23:17.159Z,8.62
2019-04-10T21:26:06.573Z,8.57
2019-04-10T21:28:55.818Z,8.53
2019-04-10T21:32:03.305Z,8.48
2019-04-10T21:34:51.617Z,8.42
2019-04-10T21:37:40.893Z,8.37
2019-04-10T21:40:30.670Z,8.33
2019-04-10T21:43:21.466Z,8.28
2019-04-10T21:46:12.106Z,8.23
2019-04-10T21:49:01.664Z,8.20
2019-04-10T21:51:51.623Z,8.13
2019-04-10T21:54:49.752Z,8.11
2019-04-10T21:57:32.034Z,8.07
2019-04-10T22:00:36.909Z,8.04
2019-04-10T22:03:25.964Z,7.99
2019-04-10T22:06:49.654Z,7.95
2019-04-10T22:09:52.930Z,7.90
2019-04-10T22:12:46.597Z,7.84
2019-04-10T22:15:37.435Z,7.81
2019-04-10T22:18:27.466Z,7.74
2019-04-10T22:21:18.598Z,7.72
2019-04-10T22:24:09.406Z,7.67
2019-04-10T22:26:58.758Z,7.61
2019-04-10T22:29:47.913Z,7.59
2019-04-10T22:32:37.272Z,7.54
2019-04-10T22:35:25.963Z,7.52
2019-04-10T22:38:15.455Z,7.48
2019-04-10T22:41:17.398Z,7.42
2019-04-10T22:43:57.076Z,7.40
2019-04-10T22:46:47.050Z,7.33
2019-04-10T22:49:37.337Z,7.30
2019-04-10T22:52:26.936Z,7.26
2019-04-10T22:55:17.690Z,7.23
2019-04-10T22:58:08.624Z,7.19
2019-04-10T23:00:58.033Z,7.15
2019-04-10T23:03:48.019Z,7.13
2019-04-10T23:06:37.554Z,7.06
2019-04-10T23:09:28.468Z,7.05
2019-04-10T23:12:18.265Z,7.01
2019-04-10T23:15:09.143Z,6.96
2019-04-10T23:17:59.242Z,6.94
2019-04-10T23:20:50.195Z,6.90
2019-04-10T23:23:41.101Z,6.88
2019-04-10T23:26:31.207Z,6.83
2019-04-10T23:29:20.792Z,6.80
2019-04-10T23:32:11.161Z,6.78
2019-04-10T23:35:01.257Z,6.76
2019-04-10T23:37:51.192Z,6.71
2019-04-10T23:40:41.007Z,6.67
2019-04-10T23:43:31.447Z,6.62
2019-04-10T23:46:22.221Z,6.62
2019-04-10T23:49:11.408Z,6.57
2019-04-10T23:52:01.297Z,6.55
2019-04-10T23:54:51.385Z,6.51
2019-04-10T23:57:41.190Z,6.46
